createdAt,value
2022-08-12T00:00:40.576Z,62.73
2022-08-12T00:02:03.917Z,62.84
2022-08-12T00:02:41.811Z,63.24
2022-08-12T00:03:40.625Z,62.73
2022-08-12T00:04:40.556Z,62.63
2022-08-12T00:05:57.182Z,62.26
2022-08-12T00:06:41.570Z,63.07
2022-08-12T00:07:40.568Z,63.27
2022-08-12T00:08:40.649Z,63.17
2022-08-12T00:09:40.482Z,62.66
2022-08-12T00:10:40.477Z,62.15
2022-08-12T00:11:40.465Z,62.26
2022-08-12T00:12:40.770Z,61.95
2022-08-12T00:13:40.446Z,62.76
2022-08-12T00:14:40.432Z,63.37
2022-08-12T00:15:40.426Z,64.07
2022-08-12T00:16:40.431Z,62.96
2022-08-12T00:17:40.406Z,63.27
2022-08-12T00:18:40.401Z,63.87
2022-08-12T00:19:40.384Z,63.27
2022-08-12T00:20:40.377Z,63.67
2022-08-12T00:21:40.445Z,63.27
2022-08-12T00:22:40.537Z,63.57
2022-08-12T00:23:40.346Z,63.60
2022-08-12T00:24:40.396Z,63.60
2022-08-12T00:26:18.991Z,63.60
2022-08-12T00:26:41.358Z,63.81
2022-08-12T00:27:43.920Z,64.01
2022-08-12T00:28:40.298Z,64.11
2022-08-12T00:29:41.788Z,64.21
2022-08-12T00:30:40.281Z,63.73
2022-08-12T00:31:40.289Z,64.85
2022-08-12T00:32:40.275Z,65.99
2022-08-12T00:33:52.639Z,65.79
2022-08-12T00:34:41.264Z,65.69
2022-08-12T00:35:40.435Z,65.59
2022-08-12T00:36:40.223Z,65.79
2022-08-12T00:37:40.233Z,65.79
2022-08-12T00:38:40.199Z,65.89
2022-08-12T00:39:40.240Z,66.30
2022-08-12T00:40:40.182Z,66.02
2022-08-12T00:41:40.169Z,65.62
2022-08-12T00:42:40.492Z,65.89
2022-08-12T00:43:40.150Z,66.13
2022-08-12T00:44:40.150Z,67.03
2022-08-12T00:45:40.133Z,65.79
2022-08-12T00:46:40.136Z,65.72
2022-08-12T00:47:40.126Z,66.63
2022-08-12T00:48:40.107Z,66.80
2022-08-12T00:49:40.092Z,66.53
2022-08-12T00:50:40.092Z,67.14
2022-08-12T00:51:40.073Z,67.34
2022-08-12T00:52:40.241Z,67.07
2022-08-12T00:53:40.053Z,67.34
2022-08-12T00:54:40.047Z,67.07
2022-08-12T00:55:40.035Z,66.94
2022-08-12T00:56:40.031Z,67.14
2022-08-12T00:57:40.030Z,67.14
2022-08-12T00:58:40.013Z,66.97
2022-08-12T00:59:39.997Z,67.07
2022-08-12T01:00:39.994Z,66.83
2022-08-12T01:02:10.418Z,67.03
2022-08-12T01:02:41.226Z,67.14
2022-08-12T01:03:39.954Z,66.94
2022-08-12T01:04:39.948Z,66.13
2022-08-12T01:05:39.930Z,66.02
2022-08-12T01:06:39.925Z,65.99
2022-08-12T01:07:39.930Z,66.40
2022-08-12T01:08:39.911Z,65.79
2022-08-12T01:09:39.924Z,65.59
2022-08-12T01:10:39.890Z,65.99
2022-08-12T01:11:39.879Z,65.59
2022-08-12T01:12:40.041Z,66.09
2022-08-12T01:13:39.854Z,66.09
2022-08-12T01:14:39.849Z,65.99
2022-08-12T01:15:39.892Z,66.09
2022-08-12T01:16:39.828Z,64.88
2022-08-12T01:17:39.824Z,65.39
2022-08-12T01:18:39.826Z,66.30
2022-08-12T01:19:39.866Z,65.59
2022-08-12T01:20:39.790Z,67.55
2022-08-12T01:21:39.781Z,67.03
2022-08-12T01:22:39.908Z,67.03
2022-08-12T01:23:39.777Z,67.38
2022-08-12T01:24:39.759Z,66.77
2022-08-12T01:25:55.593Z,67.07
2022-08-12T01:26:40.737Z,67.17
2022-08-12T01:27:39.724Z,66.77
2022-08-12T01:28:39.731Z,67.07
2022-08-12T01:29:39.706Z,67.27
2022-08-12T01:30:39.696Z,67.27
2022-08-12T01:31:39.690Z,68.29
2022-08-12T01:32:39.867Z,67.58
2022-08-12T01:33:39.677Z,68.19
2022-08-12T01:34:39.767Z,67.38
2022-08-12T01:35:39.649Z,67.68
2022-08-12T01:36:39.638Z,67.58
2022-08-12T01:37:39.624Z,67.47
2022-08-12T01:38:39.636Z,66.80
2022-08-12T01:40:35.492Z,67.47
2022-08-12T01:40:44.956Z,67.17
2022-08-12T01:41:40.590Z,67.38
2022-08-12T01:42:39.819Z,67.17
2022-08-12T01:43:39.578Z,66.77
2022-08-12T01:44:39.591Z,67.78
2022-08-12T01:45:42.887Z,67.17
2022-08-12T01:46:39.544Z,66.97
2022-08-12T01:47:39.526Z,67.07
2022-08-12T01:48:39.535Z,66.86
2022-08-12T01:49:39.501Z,66.86
2022-08-12T01:50:39.509Z,67.27
2022-08-12T01:52:21.870Z,67.00
2022-08-12T01:52:40.760Z,68.32
2022-08-12T01:53:48.565Z,68.52
2022-08-12T01:54:40.462Z,68.25
2022-08-12T01:55:39.450Z,68.59
2022-08-12T01:56:39.446Z,69.20
2022-08-12T01:57:59.575Z,69.91
2022-08-12T01:58:40.489Z,70.52
2022-08-12T01:59:39.413Z,70.86
2022-08-12T02:00:43.305Z,70.52
2022-08-12T02:01:40.465Z,71.06
2022-08-12T02:02:39.530Z,70.45
2022-08-12T02:03:39.397Z,71.26
2022-08-12T02:04:39.367Z,71.26
2022-08-12T02:05:39.352Z,70.96
2022-08-12T02:06:39.345Z,70.75
2022-08-12T02:07:39.330Z,71.06
2022-08-12T02:08:39.336Z,70.21
2022-08-12T02:09:39.307Z,70.01
2022-08-12T02:10:50.133Z,69.78
2022-08-12T02:11:40.292Z,69.78
2022-08-12T02:12:39.286Z,69.17
2022-08-12T02:13:48.717Z,69.37
2022-08-12T02:14:40.263Z,68.76
2022-08-12T02:15:39.252Z,68.25
2022-08-12T02:16:39.252Z,68.55
2022-08-12T02:17:54.716Z,68.96
2022-08-12T02:18:40.241Z,69.47
2022-08-12T02:19:39.210Z,68.86
2022-08-12T02:20:51.928Z,69.40
2022-08-12T02:21:40.281Z,68.99
2022-08-12T02:22:39.468Z,70.25
2022-08-12T02:23:39.229Z,70.35
2022-08-12T02:24:39.163Z,70.31
2022-08-12T02:25:39.149Z,70.55
2022-08-12T02:26:39.147Z,70.75
2022-08-12T02:27:39.137Z,70.79
2022-08-12T02:28:39.147Z,70.86
2022-08-12T02:29:39.117Z,71.16
2022-08-12T02:30:41.989Z,71.30
2022-08-12T02:31:39.091Z,71.30
2022-08-12T02:32:39.289Z,71.09
2022-08-12T02:33:39.075Z,71.80
2022-08-12T02:34:39.080Z,71.91
2022-08-12T02:35:39.055Z,70.89
2022-08-12T02:36:39.047Z,71.40
2022-08-12T02:37:39.036Z,71.19
2022-08-12T02:38:39.044Z,72.62
2022-08-12T02:39:39.041Z,72.34
2022-08-12T02:40:39.016Z,72.34
2022-08-12T02:41:39.001Z,72.25
2022-08-12T02:42:39.184Z,72.55
2022-08-12T02:43:38.994Z,72.11
2022-08-12T02:44:38.974Z,72.11
2022-08-12T02:45:38.959Z,72.01
2022-08-12T02:46:38.947Z,71.73
2022-08-12T02:47:59.130Z,70.92
2022-08-12T02:48:39.947Z,71.84
2022-08-12T02:49:38.920Z,71.40
2022-08-12T02:50:38.914Z,72.04
2022-08-12T02:51:38.905Z,72.25
2022-08-12T02:52:39.020Z,72.55
2022-08-12T02:53:38.897Z,72.55
2022-08-12T02:54:38.964Z,72.04
2022-08-12T02:55:38.867Z,72.65
2022-08-12T02:56:38.859Z,72.21
2022-08-12T02:57:38.848Z,71.43
2022-08-12T02:58:41.347Z,72.25
2022-08-12T02:59:39.831Z,71.23
2022-08-12T03:00:38.842Z,72.75
2022-08-12T03:01:47.905Z,71.43
2022-08-12T03:02:39.917Z,72.65
2022-08-12T03:03:38.803Z,71.23
2022-08-12T03:04:43.474Z,72.41
2022-08-12T03:05:44.540Z,72.34
2022-08-12T03:06:38.758Z,71.40
2022-08-12T03:07:59.650Z,71.12
2022-08-12T03:08:39.752Z,72.04
2022-08-12T03:10:03.854Z,71.64
2022-08-12T03:10:39.717Z,71.23
2022-08-12T03:11:42.137Z,72.14
2022-08-12T03:12:48.895Z,72.75
2022-08-12T03:13:39.710Z,72.75
2022-08-12T03:14:38.773Z,73.57
2022-08-12T03:15:38.672Z,72.86
2022-08-12T03:16:38.661Z,72.65
2022-08-12T03:17:38.653Z,72.55
2022-08-12T03:18:38.652Z,72.45
2022-08-12T03:19:38.657Z,72.62
2022-08-12T03:20:39.640Z,72.21
2022-08-12T03:21:54.641Z,71.80
2022-08-12T03:22:39.735Z,71.53
2022-08-12T03:23:38.591Z,71.30
2022-08-12T03:24:38.599Z,72.65
2022-08-12T03:25:38.625Z,72.25
2022-08-12T03:26:38.563Z,72.04
2022-08-12T03:27:38.554Z,71.80
2022-08-12T03:28:38.546Z,71.91
2022-08-12T03:29:43.312Z,71.94
2022-08-12T03:30:39.526Z,71.40
2022-08-12T03:31:38.515Z,71.43
2022-08-12T03:32:38.507Z,71.09
2022-08-12T03:33:38.501Z,70.89
2022-08-12T03:34:38.499Z,71.09
2022-08-12T03:35:41.455Z,71.19
2022-08-12T03:36:38.571Z,71.64
2022-08-12T03:37:38.461Z,71.50
2022-08-12T03:38:38.450Z,71.43
2022-08-12T03:39:38.502Z,72.48
2022-08-12T03:40:38.422Z,72.78
2022-08-12T03:41:38.421Z,72.78
2022-08-12T03:42:38.442Z,73.50
2022-08-12T03:43:38.426Z,73.02
2022-08-12T03:44:38.391Z,73.36
2022-08-12T03:45:52.321Z,74.08
2022-08-12T03:46:39.364Z,74.08
2022-08-12T03:47:38.364Z,74.18
2022-08-12T03:48:38.369Z,74.38
2022-08-12T03:49:38.362Z,75.20
2022-08-12T03:50:38.336Z,75.30
2022-08-12T03:51:38.325Z,74.90
2022-08-12T03:52:38.335Z,74.90
2022-08-12T03:53:38.300Z,74.28
2022-08-12T03:54:42.430Z,74.90
2022-08-12T03:55:38.285Z,74.38
2022-08-12T03:56:38.274Z,74.08
2022-08-12T03:57:38.265Z,74.49
2022-08-12T03:58:38.253Z,74.15
2022-08-12T03:59:38.258Z,74.35
2022-08-12T04:00:38.280Z,73.43
2022-08-12T04:01:40.796Z,74.58
2022-08-12T04:02:38.285Z,73.77
2022-08-12T04:03:38.222Z,73.77
2022-08-12T04:04:38.197Z,73.47
2022-08-12T04:05:55.829Z,73.47
2022-08-12T04:06:39.211Z,74.69
2022-08-12T04:07:38.170Z,74.38
2022-08-12T04:08:39.170Z,74.49
2022-08-12T04:09:38.153Z,75.60
2022-08-12T04:10:38.138Z,75.44
2022-08-12T04:11:46.960Z,75.64
2022-08-12T04:12:39.117Z,75.51
2022-08-12T04:13:38.132Z,75.51
2022-08-12T04:14:38.100Z,74.28
2022-08-12T04:15:38.115Z,74.28
2022-08-12T04:16:38.084Z,75.30
2022-08-12T04:17:38.066Z,75.40
2022-08-12T04:18:39.075Z,75.40
2022-08-12T04:19:38.185Z,75.20
2022-08-12T04:20:38.043Z,74.99
2022-08-12T04:21:38.037Z,74.49
2022-08-12T04:22:39.206Z,74.49
2022-08-12T04:23:38.026Z,74.58
2022-08-12T04:24:40.781Z,75.10
2022-08-12T04:25:37.994Z,74.90
2022-08-12T04:26:37.980Z,75.06
2022-08-12T04:27:37.972Z,74.90
2022-08-12T04:28:37.976Z,74.58
2022-08-12T04:30:29.243Z,74.76
2022-08-12T04:30:38.942Z,74.69
2022-08-12T04:31:37.929Z,74.35
2022-08-12T04:32:43.752Z,74.86
2022-08-12T04:33:38.950Z,74.65
2022-08-12T04:34:37.924Z,73.94
2022-08-12T04:35:37.897Z,73.33
2022-08-12T04:36:37.885Z,73.43
2022-08-12T04:37:58.271Z,73.23
2022-08-12T04:38:38.882Z,73.30
2022-08-12T04:39:37.897Z,73.50
2022-08-12T04:40:37.854Z,72.99
2022-08-12T04:41:37.839Z,73.40
2022-08-12T04:42:38.884Z,73.10
2022-08-12T04:44:00.129Z,73.10
2022-08-12T04:44:38.820Z,73.10
2022-08-12T04:45:37.807Z,73.30
2022-08-12T04:46:37.793Z,73.10
2022-08-12T04:47:37.782Z,73.19
2022-08-12T04:48:37.769Z,72.99
2022-08-12T04:49:37.780Z,73.06
2022-08-12T04:50:37.751Z,73.19
2022-08-12T04:51:37.749Z,73.19
2022-08-12T04:52:37.868Z,72.99
2022-08-12T04:53:37.726Z,72.17
2022-08-12T04:54:37.737Z,72.86
2022-08-12T04:55:37.720Z,72.86
2022-08-12T04:56:37.702Z,72.28
2022-08-12T04:57:37.688Z,72.69
2022-08-12T04:58:37.691Z,73.30
2022-08-12T04:59:47.141Z,73.30
2022-08-12T05:00:38.662Z,73.50
2022-08-12T05:01:37.651Z,73.40
2022-08-12T05:02:37.666Z,72.69
2022-08-12T05:03:46.712Z,72.69
2022-08-12T05:04:38.778Z,72.78
2022-08-12T05:05:37.611Z,72.89
2022-08-12T05:06:37.596Z,72.78
2022-08-12T05:07:46.577Z,72.78
2022-08-12T05:08:38.585Z,72.48
2022-08-12T05:10:00.884Z,72.65
2022-08-12T05:10:38.558Z,72.75
2022-08-12T05:11:37.550Z,72.75
2022-08-12T05:12:38.601Z,72.04
2022-08-12T05:13:37.537Z,72.25
2022-08-12T05:14:37.861Z,71.84
2022-08-12T05:15:37.513Z,72.04
2022-08-12T05:16:38.501Z,72.75
2022-08-12T05:17:37.496Z,72.55
2022-08-12T05:18:39.076Z,72.55
2022-08-12T05:19:37.493Z,71.53
2022-08-12T05:20:37.464Z,71.50
2022-08-12T05:21:37.459Z,72.75
2022-08-12T05:22:37.447Z,72.75
2022-08-12T05:23:37.434Z,71.94
2022-08-12T05:24:37.452Z,71.94
2022-08-12T05:25:37.421Z,71.73
2022-08-12T05:26:37.404Z,71.91
2022-08-12T05:27:37.400Z,71.23
2022-08-12T05:28:37.384Z,72.72
2022-08-12T05:30:08.051Z,71.94
2022-08-12T05:30:38.360Z,72.31
2022-08-12T05:31:40.442Z,72.31
2022-08-12T05:32:38.369Z,71.60
2022-08-12T05:33:37.350Z,71.19
2022-08-12T05:34:37.344Z,70.96
2022-08-12T05:35:37.320Z,72.58
2022-08-12T05:36:37.372Z,72.78
2022-08-12T05:37:37.307Z,72.38
2022-08-12T05:38:37.290Z,71.73
2022-08-12T05:39:37.328Z,71.12
2022-08-12T05:40:37.271Z,70.82
2022-08-12T05:41:37.263Z,71.30
2022-08-12T05:42:37.262Z,71.30
2022-08-12T05:43:37.282Z,70.79
2022-08-12T05:44:37.243Z,71.09
2022-08-12T05:45:40.482Z,70.96
2022-08-12T05:46:37.222Z,71.26
2022-08-12T05:47:53.409Z,71.26
2022-08-12T05:48:38.189Z,71.06
2022-08-12T05:49:37.209Z,69.54
2022-08-12T05:50:37.175Z,69.10
2022-08-12T05:51:40.178Z,69.10
2022-08-12T05:52:37.154Z,69.60
2022-08-12T05:53:37.145Z,70.62
2022-08-12T05:54:56.689Z,70.62
2022-08-12T05:55:38.130Z,69.88
2022-08-12T05:56:37.169Z,69.37
2022-08-12T05:57:37.114Z,69.13
2022-08-12T05:58:37.096Z,69.24
2022-08-12T05:59:37.115Z,68.90
2022-08-12T06:00:37.144Z,68.40
2022-08-12T06:02:08.819Z,68.66
2022-08-12T06:02:38.065Z,67.96
2022-08-12T06:03:37.083Z,68.36
2022-08-12T06:04:37.041Z,68.56
2022-08-12T06:05:54.384Z,67.65
2022-08-12T06:06:39.719Z,67.42
2022-08-12T06:07:37.675Z,67.01
2022-08-12T06:08:38.000Z,66.81
2022-08-12T06:09:37.005Z,66.81
2022-08-12T06:10:36.982Z,65.97
2022-08-12T06:11:36.973Z,65.77
2022-08-12T06:12:36.962Z,66.17
2022-08-12T06:13:53.965Z,66.04
2022-08-12T06:14:38.035Z,65.50
2022-08-12T06:15:36.928Z,64.62
2022-08-12T06:16:36.921Z,64.73
2022-08-12T06:17:36.910Z,64.09
2022-08-12T06:18:36.898Z,63.68
2022-08-12T06:20:27.001Z,63.28
2022-08-12T06:20:37.882Z,63.96
2022-08-12T06:21:36.874Z,63.58
2022-08-12T06:22:36.868Z,64.87
2022-08-12T06:23:40.549Z,64.76
2022-08-12T06:24:36.856Z,63.85
2022-08-12T06:25:36.832Z,64.06
2022-08-12T06:26:36.826Z,63.52
2022-08-12T06:27:36.812Z,63.93
2022-08-12T06:28:37.802Z,63.52
2022-08-12T06:30:08.177Z,63.09
2022-08-12T06:30:39.450Z,62.99
2022-08-12T06:31:36.776Z,62.08
2022-08-12T06:32:42.902Z,61.27
2022-08-12T06:33:55.038Z,62.05
2022-08-12T06:35:26.610Z,61.75
2022-08-12T06:35:47.685Z,61.04
2022-08-12T06:36:37.721Z,61.32
2022-08-12T06:37:36.712Z,61.44
2022-08-12T06:38:36.705Z,61.85
2022-08-12T06:39:36.726Z,61.92
2022-08-12T06:40:36.677Z,61.75
2022-08-12T06:41:36.675Z,62.15
2022-08-12T06:42:36.662Z,61.72
2022-08-12T06:44:05.613Z,61.52
2022-08-12T06:44:37.657Z,61.11
2022-08-12T06:45:46.037Z,60.21
2022-08-12T06:46:37.624Z,60.31
2022-08-12T06:47:36.611Z,59.17
2022-08-12T06:48:36.595Z,59.47
2022-08-12T06:49:36.588Z,60.38
2022-08-12T06:50:39.897Z,59.84
2022-08-12T06:51:36.586Z,59.34
2022-08-12T06:52:36.560Z,59.04
2022-08-12T06:53:36.551Z,59.04
2022-08-12T06:54:36.542Z,58.71
2022-08-12T06:55:36.556Z,58.71
2022-08-12T06:58:05.548Z,59.59
2022-08-12T06:58:06.099Z,59.28
2022-08-12T06:58:37.517Z,58.78
2022-08-12T06:59:36.490Z,58.86
2022-08-12T07:00:36.538Z,57.65
2022-08-12T07:01:36.474Z,57.12
2022-08-12T07:02:37.272Z,57.22
2022-08-12T07:03:36.456Z,57.32
2022-08-12T07:04:37.775Z,57.19
2022-08-12T07:05:36.451Z,56.49
2022-08-12T07:06:36.442Z,56.29
2022-08-12T07:07:36.424Z,56.96
2022-08-12T07:08:36.414Z,56.74
2022-08-12T07:10:05.198Z,56.23
2022-08-12T07:10:37.406Z,56.13
2022-08-12T07:11:36.418Z,55.83
2022-08-12T07:12:36.376Z,55.63
2022-08-12T07:13:36.362Z,55.47
2022-08-12T07:14:40.658Z,55.88
2022-08-12T07:15:36.362Z,54.47
2022-08-12T07:16:36.339Z,54.85
2022-08-12T07:17:36.916Z,55.65
2022-08-12T07:18:36.319Z,56.35
2022-08-12T07:19:45.029Z,54.85
2022-08-12T07:20:52.170Z,54.12
2022-08-12T07:22:00.155Z,53.42
2022-08-12T07:22:37.282Z,52.89
2022-08-12T07:23:36.265Z,52.69
2022-08-12T07:24:36.256Z,53.07
2022-08-12T07:25:37.513Z,51.97
2022-08-12T07:26:37.263Z,52.67
2022-08-12T07:27:36.268Z,52.55
2022-08-12T07:28:36.260Z,52.44
2022-08-12T07:29:57.939Z,52.22
2022-08-12T07:30:37.211Z,50.49
2022-08-12T07:31:36.210Z,50.70
2022-08-12T07:32:36.199Z,49.55
2022-08-12T07:33:36.175Z,49.42
2022-08-12T07:34:36.164Z,48.58
2022-08-12T07:35:36.217Z,47.33
2022-08-12T07:36:36.142Z,47.02
2022-08-12T07:37:36.153Z,45.75
2022-08-12T07:38:36.135Z,44.12
2022-08-12T07:39:36.155Z,43.18
2022-08-12T07:40:36.126Z,41.36
2022-08-12T07:41:36.092Z,41.41
2022-08-12T07:42:36.079Z,40.01
2022-08-12T07:43:36.125Z,39.29
2022-08-12T07:44:36.066Z,38.86
2022-08-12T07:45:36.066Z,38.67
2022-08-12T07:46:36.085Z,38.27
2022-08-12T07:47:36.034Z,37.77
2022-08-12T07:48:36.028Z,37.08
2022-08-12T07:49:36.016Z,38.19
2022-08-12T07:50:37.029Z,38.21
2022-08-12T07:51:35.993Z,37.32
2022-08-12T07:52:36.024Z,37.24
2022-08-12T07:53:47.723Z,37.73
2022-08-12T07:54:36.964Z,38.54
2022-08-12T07:55:35.968Z,38.24
2022-08-12T07:56:35.948Z,38.44
2022-08-12T07:57:35.935Z,36.68
2022-08-12T07:58:35.941Z,35.57
2022-08-12T07:59:35.923Z,35.07
2022-08-12T08:00:35.919Z,36.28
2022-08-12T08:01:35.955Z,36.26
2022-08-12T08:02:35.894Z,35.75
2022-08-12T08:03:35.871Z,34.23
2022-08-12T08:04:36.868Z,34.20
2022-08-12T08:05:35.856Z,33.85
2022-08-12T08:06:36.358Z,33.91
2022-08-12T08:07:35.838Z,31.51
2022-08-12T08:08:35.826Z,30.30
2022-08-12T08:09:35.814Z,30.28
2022-08-12T08:10:35.842Z,30.85
2022-08-12T08:11:35.810Z,28.79
2022-08-12T08:12:35.853Z,28.77
2022-08-12T08:13:35.774Z,28.47
2022-08-12T08:14:35.782Z,27.97
2022-08-12T08:16:36.767Z,27.37
2022-08-12T08:17:35.743Z,27.77
2022-08-12T08:18:35.731Z,27.77
2022-08-12T08:20:01.992Z,27.37
2022-08-12T08:20:36.748Z,27.87
2022-08-12T08:21:35.723Z,28.08
2022-08-12T08:22:41.984Z,27.70
2022-08-12T08:23:37.202Z,27.71
2022-08-12T08:24:35.677Z,27.62
2022-08-12T08:25:37.629Z,28.91
2022-08-12T08:26:35.675Z,28.81
2022-08-12T08:27:35.650Z,28.02
2022-08-12T08:28:35.643Z,27.44
2022-08-12T08:29:35.638Z,29.61
2022-08-12T08:30:35.622Z,28.23
2022-08-12T08:31:35.625Z,28.33
2022-08-12T08:32:35.667Z,28.03
2022-08-12T08:34:05.181Z,28.33
2022-08-12T08:34:53.071Z,29.03
2022-08-12T08:35:47.650Z,27.54
2022-08-12T08:36:36.585Z,28.92
2022-08-12T08:37:37.063Z,28.81
2022-08-12T08:38:35.611Z,28.97
2022-08-12T08:39:35.601Z,27.29
2022-08-12T08:40:35.564Z,27.39
2022-08-12T08:42:15.456Z,28.26
2022-08-12T08:42:36.519Z,27.24
2022-08-12T08:43:44.377Z,26.12
2022-08-12T08:44:36.500Z,25.61
2022-08-12T08:45:35.491Z,25.67
2022-08-12T08:46:35.494Z,24.77
2022-08-12T08:47:35.465Z,24.45
2022-08-12T08:48:35.460Z,23.35
2022-08-12T08:49:35.452Z,22.06
2022-08-12T08:50:35.440Z,22.23
2022-08-12T08:51:35.443Z,22.30
2022-08-12T08:52:39.442Z,20.46
2022-08-12T08:53:36.416Z,21.24
2022-08-12T08:54:35.408Z,19.78
2022-08-12T08:56:03.322Z,21.40
2022-08-12T08:56:36.404Z,19.45
2022-08-12T08:57:43.130Z,19.82
2022-08-12T08:58:36.374Z,20.01
2022-08-12T08:59:35.366Z,18.64
2022-08-12T09:00:35.360Z,19.42
2022-08-12T09:01:37.517Z,19.80
2022-08-12T09:02:35.367Z,19.68
2022-08-12T09:05:08.572Z,19.48
2022-08-12T09:05:13.457Z,19.57
2022-08-12T09:06:01.563Z,18.21
2022-08-12T09:06:37.364Z,18.50
2022-08-12T09:07:43.895Z,18.21
2022-08-12T09:08:36.291Z,16.75
2022-08-12T09:10:02.945Z,18.38
2022-08-12T09:10:36.278Z,18.66
2022-08-12T09:12:06.904Z,17.51
2022-08-12T09:12:36.283Z,17.03
2022-08-12T09:14:10.927Z,17.05
2022-08-12T09:14:36.242Z,17.43
2022-08-12T09:15:36.248Z,17.05
2022-08-12T09:16:40.902Z,17.54
2022-08-12T09:18:36.211Z,17.82
2022-08-12T09:19:35.203Z,17.25
2022-08-12T09:20:35.196Z,17.51
2022-08-12T09:21:54.744Z,16.16
2022-08-12T09:22:36.196Z,16.93
2022-08-12T09:23:59.322Z,17.21
2022-08-12T09:24:36.215Z,16.36
2022-08-12T09:25:35.152Z,16.17
2022-08-12T09:26:38.152Z,16.27
2022-08-12T09:28:04.316Z,16.74
2022-08-12T09:28:36.897Z,17.30
2022-08-12T09:30:11.668Z,16.24
2022-08-12T09:30:41.085Z,16.28
2022-08-12T09:32:03.132Z,16.19
2022-08-12T09:33:05.200Z,17.53
2022-08-12T09:34:26.120Z,16.85
2022-08-12T09:34:42.036Z,16.06
2022-08-12T09:35:43.186Z,16.94
2022-08-12T09:36:58.353Z,15.98
2022-08-12T09:37:58.513Z,16.16
2022-08-12T09:38:36.959Z,16.44
2022-08-12T09:40:02.081Z,16.05
2022-08-12T09:41:01.408Z,15.66
2022-08-12T09:42:33.658Z,15.94
2022-08-12T09:42:44.047Z,15.47
2022-08-12T09:43:36.048Z,16.06
2022-08-12T09:44:39.026Z,15.57
2022-08-12T09:46:06.402Z,15.85
2022-08-12T09:46:36.046Z,16.52
2022-08-12T09:47:34.991Z,15.26
2022-08-12T09:48:36.070Z,15.45
2022-08-12T09:49:38.538Z,14.58
2022-08-12T09:50:34.947Z,15.52
2022-08-12T09:51:37.308Z,13.80
2022-08-12T09:52:34.990Z,14.17
2022-08-12T09:53:38.587Z,13.88
2022-08-12T09:54:36.209Z,13.98
2022-08-12T09:56:06.990Z,14.37
2022-08-12T09:57:02.861Z,14.09
2022-08-12T09:58:44.902Z,13.70
2022-08-12T09:58:57.242Z,14.28
2022-08-12T10:00:12.618Z,14.76
2022-08-12T10:00:51.693Z,15.23
2022-08-12T10:02:52.606Z,13.38
2022-08-12T10:02:53.070Z,13.87
2022-08-12T10:03:35.941Z,14.14
2022-08-12T10:04:35.966Z,13.65
2022-08-12T10:06:19.665Z,13.19
2022-08-12T10:06:36.897Z,13.59
2022-08-12T10:07:39.431Z,13.81
2022-08-12T10:08:34.830Z,14.48
2022-08-12T10:09:57.339Z,16.19
2022-08-12T10:10:40.397Z,14.17
2022-08-12T10:12:10.616Z,15.31
2022-08-12T10:12:35.786Z,13.97
2022-08-12T10:13:40.194Z,14.24
2022-08-12T10:14:36.750Z,14.62
2022-08-12T10:16:02.844Z,13.75
2022-08-12T10:16:39.464Z,13.93
2022-08-12T10:17:34.760Z,12.68
2022-08-12T10:18:36.093Z,13.18
2022-08-12T10:19:36.847Z,13.70
2022-08-12T10:20:34.731Z,14.95
2022-08-12T10:21:36.468Z,14.27
2022-08-12T10:22:39.327Z,14.26
2022-08-12T10:23:40.156Z,13.77
2022-08-12T10:24:35.704Z,14.43
2022-08-12T10:26:34.269Z,14.31
2022-08-12T10:26:38.974Z,13.06
2022-08-12T10:27:39.477Z,13.44
2022-08-12T10:28:35.693Z,12.95
2022-08-12T10:30:02.784Z,12.57
2022-08-12T10:30:40.011Z,12.46
2022-08-12T10:31:47.423Z,12.28
2022-08-12T10:32:45.205Z,12.21
2022-08-12T10:33:54.798Z,12.50
2022-08-12T10:34:35.636Z,13.46
2022-08-12T10:35:38.249Z,12.41
2022-08-12T10:36:39.849Z,13.17
2022-08-12T10:38:36.643Z,12.97
2022-08-12T10:38:41.568Z,12.20
2022-08-12T10:40:01.781Z,12.67
2022-08-12T10:40:37.903Z,13.06
2022-08-12T10:41:57.876Z,11.82
2022-08-12T10:42:35.577Z,11.54
2022-08-12T10:43:54.024Z,12.12
2022-08-12T10:44:35.568Z,12.21
2022-08-12T10:45:38.142Z,12.95
2022-08-12T10:46:34.552Z,12.38
2022-08-12T10:48:19.638Z,11.42
2022-08-12T10:48:35.548Z,11.51
2022-08-12T10:50:02.982Z,10.86
2022-08-12T10:50:56.710Z,11.34
2022-08-12T10:52:04.611Z,11.82
2022-08-12T10:52:47.166Z,11.90
2022-08-12T10:53:45.475Z,12.76
2022-08-12T10:54:36.261Z,12.18
2022-08-12T10:55:35.502Z,11.91
2022-08-12T10:56:35.421Z,11.72
2022-08-12T10:58:13.728Z,12.20
2022-08-12T10:58:35.480Z,11.81
2022-08-12T11:00:01.327Z,11.81
2022-08-12T11:00:55.358Z,12.10
2022-08-12T11:04:19.351Z,12.00
2022-08-12T11:04:24.245Z,11.42
2022-08-12T11:04:26.120Z,12.10
2022-08-12T11:04:43.747Z,11.51
2022-08-12T11:07:03.708Z,11.80
2022-08-12T11:07:05.076Z,12.18
2022-08-12T11:08:37.766Z,11.50
2022-08-12T11:08:42.414Z,11.68
2022-08-12T11:09:54.232Z,11.40
2022-08-12T11:10:35.465Z,11.50
2022-08-12T11:12:37.053Z,11.69
2022-08-12T11:12:59.307Z,11.50
2022-08-12T11:13:45.827Z,12.06
2022-08-12T11:14:49.591Z,10.63
2022-08-12T11:16:19.884Z,10.64
2022-08-12T11:16:35.495Z,10.92
2022-08-12T11:17:43.827Z,11.12
2022-08-12T11:18:35.340Z,11.03
2022-08-12T11:19:34.443Z,10.93
2022-08-12T11:20:34.327Z,11.59
2022-08-12T11:21:57.130Z,10.56
2022-08-12T11:22:35.486Z,11.23
2022-08-12T11:23:36.928Z,11.24
2022-08-12T11:24:34.344Z,11.33
2022-08-12T11:25:53.715Z,11.81
2022-08-12T11:26:35.293Z,11.05
2022-08-12T11:27:34.288Z,12.10
2022-08-12T11:28:37.653Z,11.32
2022-08-12T11:30:02.213Z,11.61
2022-08-12T11:30:35.292Z,11.80
2022-08-12T11:31:52.661Z,11.15
2022-08-12T11:32:38.832Z,11.24
2022-08-12T11:34:06.822Z,11.90
2022-08-12T11:34:53.266Z,11.51
2022-08-12T11:35:35.241Z,11.51
2022-08-12T11:36:36.277Z,11.41
2022-08-12T11:37:57.717Z,11.23
2022-08-12T11:38:35.193Z,11.23
2022-08-12T11:40:03.581Z,12.09
2022-08-12T11:40:35.174Z,11.63
2022-08-12T11:41:34.166Z,12.40
2022-08-12T11:42:34.165Z,11.94
2022-08-12T11:43:50.748Z,12.70
2022-08-12T11:44:42.878Z,13.28
2022-08-12T11:45:38.943Z,12.60
2022-08-12T11:46:34.136Z,12.48
2022-08-12T11:47:34.135Z,11.90
2022-08-12T11:48:52.234Z,12.38
2022-08-12T11:49:35.143Z,12.17
2022-08-12T11:50:34.121Z,12.62
2022-08-12T11:51:36.531Z,11.10
2022-08-12T11:52:53.906Z,11.08
2022-08-12T11:53:57.263Z,11.29
2022-08-12T11:54:35.118Z,11.31
2022-08-12T11:55:34.096Z,11.50
2022-08-12T11:56:38.126Z,10.72
2022-08-12T11:58:33.815Z,11.19
2022-08-12T12:01:05.634Z,12.14
2022-08-12T12:02:01.024Z,11.10
2022-08-12T12:02:35.119Z,11.49
2022-08-12T12:03:40.444Z,11.58
2022-08-12T12:04:35.047Z,11.10
2022-08-12T12:05:41.726Z,10.90
2022-08-12T12:06:35.034Z,11.47
2022-08-12T12:08:37.500Z,11.26
2022-08-12T12:08:38.309Z,11.27
2022-08-12T12:09:52.763Z,11.82
2022-08-12T12:10:35.024Z,11.53
2022-08-12T12:11:39.119Z,10.77
2022-08-12T12:12:34.998Z,10.97
2022-08-12T12:14:06.924Z,10.61
2022-08-12T12:14:38.141Z,11.86
2022-08-12T12:15:40.968Z,11.94
2022-08-12T12:16:38.304Z,11.66
2022-08-12T12:17:38.564Z,11.37
2022-08-12T12:18:33.971Z,11.10
2022-08-12T12:19:45.456Z,12.05
2022-08-12T12:20:35.013Z,11.37
2022-08-12T12:21:48.681Z,11.28
2022-08-12T12:22:34.958Z,11.46
2022-08-12T12:23:36.179Z,11.36
2022-08-12T12:24:33.945Z,10.88
2022-08-12T12:26:07.512Z,10.03
2022-08-12T12:26:36.983Z,11.36
2022-08-12T12:28:01.973Z,10.79
2022-08-12T12:28:37.327Z,11.07
2022-08-12T12:30:18.377Z,10.88
2022-08-12T12:30:34.935Z,10.98
2022-08-12T12:32:08.954Z,11.10
2022-08-12T12:32:34.903Z,11.50
2022-08-12T12:33:57.295Z,12.08
2022-08-12T12:34:34.914Z,11.03
2022-08-12T12:36:18.460Z,11.88
2022-08-12T12:36:34.887Z,10.74
2022-08-12T12:38:04.710Z,12.26
2022-08-12T12:38:34.871Z,11.30
2022-08-12T12:39:55.688Z,11.21
2022-08-12T12:40:34.867Z,11.10
2022-08-12T12:42:40.685Z,11.46
2022-08-12T12:42:45.409Z,11.26
2022-08-12T12:43:43.646Z,10.78
2022-08-12T12:44:42.130Z,11.43
2022-08-12T12:45:35.537Z,9.55
2022-08-12T12:46:33.840Z,10.78
2022-08-12T12:47:33.839Z,10.68
2022-08-12T12:48:33.824Z,10.21
2022-08-12T12:49:33.890Z,10.31
2022-08-12T12:50:35.933Z,11.54
2022-08-12T12:51:58.135Z,10.78
2022-08-12T12:52:34.815Z,10.68
2022-08-12T12:54:06.919Z,10.10
2022-08-12T12:54:34.807Z,10.19
2022-08-12T12:55:35.734Z,9.63
2022-08-12T12:56:34.064Z,9.81